Terminal Aerodrome Forecast
Issued by NWS Atlanta, GA

Home | Current Version | Previous Version | Text Only | Print | Product List | Glossary On
Versions: 1 2 3 4 5 6 7 8 9 10 11 12 13 14 15 16 17 18 19 20 21 22 23 24 25 26 27 28
000
FTUS42 KFFC 261258 AAA
TAFAHN
TAF AMD
KAHN 261258Z 2613/2712 24008KT P6SM BKN009
     FM261400 28010KT P6SM SCT008 SCT035
     FM261600 29012G22KT P6SM BKN045
     FM270200 33007KT P6SM SCT200=

USA.gov is the U.S. government's official web portal to all federal, state and local government web resources and services.